Time;durP1;ratioP1;P1;durP2;ratioP2;P2;SDS_P1;SDS_P2;PMS_P1;PMS_P2;Temp;Humidity;BMP_temperature;BMP_pressure;BME280_temperature;BME280_humidity;BME280_pressure;Samples;Min_cycle;Max_cycle;Signal;HPM_P1;HPM_P2
2023/09/16 00:00:19;;;;;;;5.47;3.73;;;16.60;99.90;;;;;;5059954;28;20481;-68
2023/09/16 00:02:45;;;;;;;6.00;4.13;;;16.70;99.90;;;;;;5054226;28;20452;-68
2023/09/16 00:05:13;;;;;;;8.00;4.67;;;16.70;99.90;;;;;;5063230;28;20468;-67
2023/09/16 00:07:40;;;;;;;6.40;4.90;;;16.60;99.90;;;;;;5065104;28;20456;-68
2023/09/16 00:10:08;;;;;;;6.63;4.43;;;16.60;99.90;;;;;;5052214;28;20431;-67
2023/09/16 00:12:34;;;;;;;6.87;5.20;;;16.50;99.90;;;;;;5051689;28;20442;-67
2023/09/16 00:15:01;;;;;;;5.67;3.97;;;16.50;99.90;;;;;;5062434;28;20464;-67
2023/09/16 00:17:28;;;;;;;6.40;4.43;;;16.30;99.90;;;;;;5062950;28;20438;-68
2023/09/16 00:19:54;;;;;;;5.60;3.80;;;16.40;99.90;;;;;;5069848;28;20473;-68
2023/09/16 00:22:24;;;;;;;6.80;4.43;;;16.40;99.90;;;;;;5051231;28;20453;-67
2023/09/16 00:24:52;;;;;;;7.70;4.63;;;16.50;99.90;;;;;;5065172;28;20465;-67
2023/09/16 00:27:18;;;;;;;6.50;3.60;;;16.30;99.90;;;;;;5044703;28;20498;-67
2023/09/16 00:29:45;;;;;;;6.97;4.10;;;16.10;99.90;;;;;;5057056;28;20461;-67
2023/09/16 00:32:12;;;;;;;8.77;5.10;;;16.10;99.90;;;;;;5055517;28;20506;-68
2023/09/16 00:34:39;;;;;;;5.87;4.17;;;16.40;99.90;;;;;;5064968;28;20500;-68
2023/09/16 00:37:05;;;;;;;4.93;3.93;;;16.50;99.90;;;;;;5057750;28;20443;-68
2023/09/16 00:39:33;;;;;;;7.27;4.90;;;16.50;99.90;;;;;;5061441;28;20482;-67
2023/09/16 00:42:00;;;;;;;5.23;3.60;;;16.40;99.90;;;;;;5054864;28;20525;-68
2023/09/16 00:44:27;;;;;;;5.57;3.90;;;16.30;99.90;;;;;;5059226;28;20528;-68
2023/09/16 00:46:54;;;;;;;8.03;4.20;;;16.10;99.90;;;;;;5054239;28;20445;-66
2023/09/16 00:49:20;;;;;;;7.27;3.73;;;16.10;99.90;;;;;;5059283;28;20442;-68
2023/09/16 00:51:47;;;;;;;6.00;4.07;;;16.00;99.90;;;;;;5050213;28;20438;-67
2023/09/16 00:54:14;;;;;;;6.60;4.27;;;15.90;99.90;;;;;;5061374;28;20469;-67
2023/09/16 00:56:43;;;;;;;6.63;3.80;;;16.10;99.90;;;;;;5057375;28;20946;-67
2023/09/16 00:59:10;;;;;;;5.37;2.90;;;15.90;99.90;;;;;;5059925;28;20488;-67
2023/09/16 01:01:38;;;;;;;7.03;4.50;;;15.60;99.90;;;;;;5052362;28;20809;-67
2023/09/16 01:04:05;;;;;;;6.57;4.40;;;;;;;;;;5039456;28;20483;-67
2023/09/16 01:06:32;;;;;;;5.73;4.23;;;;;;;;;;5055104;28;20433;-67
2023/09/16 01:08:59;;;;;;;7.07;4.27;;;;;;;;;;5045170;28;20434;-67
2023/09/16 01:11:27;;;;;;;5.43;4.23;;;;;;;;;;5055332;28;20532;-67
2023/09/16 01:13:55;;;;;;;5.53;3.57;;;;;;;;;;5044955;28;20453;-68
2023/09/16 01:16:34;;;;;;;7.47;4.67;;;;;;;;;;5056050;28;20869;-68
2023/09/16 01:19:06;;;;;;;7.13;4.97;;;;;;;;;;5050197;28;20493;-68
2023/09/16 01:21:33;;;;;;;7.33;4.23;;;;;;;;;;5065976;28;20926;-68
2023/09/16 01:24:16;;;;;;;6.40;4.47;;;;;;;;;;5055038;28;20442;-67
2023/09/16 01:26:45;;;;;;;5.10;3.73;;;;;;;;;;5059058;28;20470;-68
2023/09/16 01:29:12;;;;;;;5.80;3.67;;;;;;;;;;5052558;28;20469;-68
2023/09/16 01:31:40;;;;;;;6.43;4.30;;;;;;;;;;5062921;28;20438;-68
2023/09/16 01:34:10;;;;;;;5.83;3.67;;;;;;;;;;5059089;28;20465;-66
2023/09/16 01:36:38;;;;;;;6.80;3.93;;;;;;;;;;5041468;28;20489;-67
2023/09/16 01:39:08;;;;;;;9.27;4.80;;;;;;;;;;5052362;28;20508;-67
2023/09/16 01:41:36;;;;;;;5.90;4.00;;;;;;;;;;5067230;28;20445;-66
2023/09/16 01:44:04;;;;;;;8.30;4.30;;;;;;;;;;5053857;28;20912;-67
2023/09/16 01:46:36;;;;;;;6.00;4.00;;;;;;;;;;5067484;28;20452;-66
2023/09/16 01:49:03;;;;;;;9.57;4.43;;;;;;;;;;5061210;28;20947;-67
2023/09/16 01:51:30;;;;;;;6.57;4.07;;;;;;;;;;5060093;28;20818;-67
2023/09/16 01:53:57;;;;;;;5.30;3.57;;;;;;;;;;5070662;28;20980;-67
2023/09/16 01:56:24;;;;;;;5.97;3.83;;;;;;;;;;5057376;28;20449;-67
2023/09/16 01:58:52;;;;;;;7.27;4.07;;;;;;;;;;5052491;28;20450;-67
2023/09/16 02:01:20;;;;;;;6.40;4.47;;;;;;;;;;5066234;28;20441;-67
2023/09/16 02:03:47;;;;;;;9.17;4.83;;;;;;;;;;5063431;28;20438;-67
2023/09/16 02:06:14;;;;;;;6.97;4.73;;;;;;;;;;5066894;28;20443;-67
2023/09/16 02:08:41;;;;;;;5.27;3.90;;;;;;;;;;5052449;28;20434;-68
2023/09/16 02:11:10;;;;;;;5.47;3.33;;;;;;;;;;5066813;28;20442;-69
2023/09/16 02:13:37;;;;;;;7.20;4.53;;;;;;;;;;5053177;28;20439;-67
2023/09/16 02:16:04;;;;;;;6.40;4.27;;;;;;;;;;5067050;28;20561;-68
2023/09/16 02:18:32;;;;;;;5.50;4.10;;;;;;;;;;5064015;28;20450;-68
2023/09/16 02:20:59;;;;;;;8.10;4.13;;;;;;;;;;5059605;28;20481;-68
2023/09/16 02:23:26;;;;;;;7.20;3.67;;;;;;;;;;5061720;28;20449;-68
2023/09/16 02:25:54;;;;;;;6.33;3.73;;;;;;;;;;5057400;28;20469;-68
2023/09/16 02:28:21;;;;;;;5.00;3.63;;;;;;;;;;5060354;28;20832;-68
2023/09/16 02:30:49;;;;;;;5.40;3.80;;;;;;;;;;5065590;28;20488;-68
2023/09/16 02:33:16;;;;;;;6.50;4.13;;;;;;;;;;5063709;28;20449;-68
2023/09/16 02:35:45;;;;;;;8.43;4.40;;;;;;;;;;5053855;28;20490;-67
2023/09/16 02:38:12;;;;;;;5.83;2.93;;;;;;;;;;5065542;28;20450;-68
2023/09/16 02:40:40;;;;;;;6.37;4.40;;;;;;;;;;5046568;28;20482;-68
2023/09/16 02:43:07;;;;;;;7.10;4.17;;;;;;;;;;5058938;28;20442;-68
2023/09/16 02:45:39;;;;;;;6.50;3.60;;;;;;;;;;5058491;28;20469;-68
2023/09/16 02:48:07;;;;;;;6.70;3.93;;;;;;;;;;5059330;28;20860;-68
2023/09/16 02:50:34;;;;;;;8.20;4.83;;;;;;;;;;5059407;28;20435;-68
2023/09/16 02:53:03;;;;;;;6.60;3.87;;;;;;;;;;5066643;28;20441;-68
2023/09/16 02:55:30;;;;;;;6.30;4.20;;;;;;;;;;5063586;28;20541;-68
2023/09/16 02:57:57;;;;;;;5.90;3.90;;;;;;;;;;5065854;28;20445;-68
2023/09/16 03:00:24;;;;;;;6.87;4.33;;;;;;;;;;5060445;28;20481;-67
2023/09/16 03:02:51;;;;;;;7.33;4.00;;;;;;;;;;5064541;28;20785;-68
2023/09/16 03:05:18;;;;;;;5.10;3.70;;;;;;;;;;5061013;28;20492;-68
2023/09/16 03:07:45;;;;;;;7.83;4.07;;;;;;;;;;5058797;28;20450;-68
2023/09/16 03:10:14;;;;;;;8.00;4.67;;;;;;;;;;5062966;28;20451;-68
2023/09/16 03:12:41;;;;;;;5.37;3.77;;;;;;;;;;5065852;28;20454;-68
2023/09/16 03:15:08;;;;;;;6.90;4.37;;;;;;;;;;5051192;28;20454;-66
2023/09/16 03:17:35;;;;;;;5.03;3.73;;;;;;;;;;5055211;28;20453;-66
2023/09/16 03:22:38;;;;;;;6.23;4.50;;;;;;;;;;5200611;22;20480;-67
2023/09/16 03:25:06;;;;;;;6.97;4.33;;;;;;;;;;5072387;28;20830;-67
2023/09/16 03:27:36;;;;;;;5.97;3.80;;;;;;;;;;5071635;28;20452;-67
2023/09/16 03:30:03;;;;;;;6.60;4.30;;;;;;;;;;5072049;28;20811;-67
2023/09/16 03:32:30;;;;;;;6.50;4.13;;;;;;;;;;5070953;28;20619;-67
2023/09/16 03:34:57;;;;;;;6.53;3.43;;;;;;;;;;5071702;28;20457;-67
2023/09/16 03:37:24;;;;;;;5.23;3.53;;;;;;;;;;5071691;28;20440;-67
2023/09/16 03:39:51;;;;;;;7.23;4.60;;;;;;;;;;5071915;28;20477;-67
2023/09/16 03:42:18;;;;;;;6.37;4.07;;;;;;;;;;5071915;28;20441;-67
2023/09/16 03:44:47;;;;;;;6.30;4.23;;;;;;;;;;5071170;28;20452;-66
2023/09/16 03:47:14;;;;;;;5.37;3.47;;;;;;;;;;5072011;28;20441;-66
2023/09/16 03:49:41;;;;;;;5.73;3.63;;;;;;;;;;5071639;28;20448;-66
2023/09/16 03:52:08;;;;;;;7.00;4.33;;;;;;;;;;5071250;28;20437;-66
2023/09/16 03:54:35;;;;;;;6.80;3.83;;;;;;;;;;5071655;28;20472;-66
2023/09/16 03:57:03;;;;;;;6.93;4.73;;;;;;;;;;5071603;28;20452;-66
2023/09/16 03:59:30;;;;;;;7.80;5.03;;;;;;;;;;5071454;28;20461;-66
2023/09/16 04:01:58;;;;;;;6.33;4.00;;;;;;;;;;5071544;28;20810;-66
2023/09/16 04:04:25;;;;;;;5.40;3.50;;;;;;;;;;5070739;28;20469;-66
2023/09/16 04:06:52;;;;;;;4.67;3.87;;;;;;;;;;5071776;28;20473;-66
2023/09/16 04:09:19;;;;;;;7.27;4.10;;;;;;;;;;5071144;28;20456;-66
2023/09/16 04:11:46;;;;;;;8.00;4.03;;;;;;;;;;5070754;28;20437;-67
2023/09/16 04:14:13;;;;;;;5.93;3.50;;;;;;;;;;5070970;28;20465;-67
2023/09/16 04:16:43;;;;;;;5.87;4.30;;;;;;;;;;5071260;28;20511;-68
2023/09/16 04:19:12;;;;;;;7.50;4.43;;;;;;;;;;5071481;28;20810;-68
2023/09/16 04:21:39;;;;;;;6.60;3.90;;;;;;;;;;5070659;28;20481;-67
2023/09/16 04:24:06;;;;;;;5.67;3.53;;;;;;;;;;5070992;28;20465;-68
2023/09/16 04:26:33;;;;;;;6.20;4.10;;;;;;;;;;5071485;28;20441;-67
2023/09/16 04:29:01;;;;;;;5.70;4.40;;;;;;;;;;5069646;28;20436;-67
2023/09/16 04:31:29;;;;;;;5.70;3.33;;;;;;;;;;5070853;28;20460;-67
2023/09/16 04:33:57;;;;;;;7.13;4.57;;;;;;;;;;5070285;28;20455;-67
2023/09/16 04:36:25;;;;;;;6.10;4.10;;;;;;;;;;5071166;28;20950;-68
2023/09/16 04:38:52;;;;;;;6.03;4.10;;;;;;;;;;5070987;28;20452;-66
2023/09/16 04:41:21;;;;;;;6.10;4.07;;;;;;;;;;5070856;28;20493;-66
2023/09/16 04:43:49;;;;;;;7.80;4.70;;;;;;;;;;5071187;28;20452;-66
2023/09/16 04:46:16;;;;;;;6.97;4.07;;;;;;;;;;5072865;28;20492;-66
2023/09/16 04:48:43;;;;;;;7.10;4.67;;;;;;;;;;5070373;28;20507;-68
2023/09/16 04:51:11;;;;;;;7.90;4.80;;;;;;;;;;5071432;28;20513;-66
2023/09/16 04:53:39;;;;;;;7.03;3.87;;;;;;;;;;5073128;28;20870;-67
2023/09/16 04:56:08;;;;;;;5.57;3.67;;;;;;;;;;5075035;28;20555;-66
2023/09/16 04:58:35;;;;;;;6.87;4.47;;;;;;;;;;5074756;28;20452;-66
2023/09/16 05:01:04;;;;;;;7.17;4.60;;;;;;;;;;5074671;28;20476;-66
2023/09/16 05:03:31;;;;;;;7.03;4.37;;;;;;;;;;5075104;28;20540;-66
2023/09/16 05:05:59;;;;;;;8.60;4.80;;;;;;;;;;5074115;28;20469;-67
2023/09/16 05:08:26;;;;;;;6.33;4.37;;;;;;;;;;5074662;28;20441;-66
2023/09/16 05:10:55;;;;;;;6.83;4.10;;;;;;;;;;5074133;28;20430;-67
2023/09/16 05:13:22;;;;;;;7.83;4.87;;;;;;;;;;5074787;28;20453;-67
2023/09/16 05:15:49;;;;;;;6.47;4.77;;;;;;;;;;5074118;28;20974;-68
2023/09/16 05:18:17;;;;;;;8.00;5.47;;;;;;;;;;5074641;28;20446;-69
2023/09/16 05:20:44;;;;;;;6.30;3.70;;;;;;;;;;5074666;28;20473;-69
2023/09/16 05:23:11;;;;;;;6.07;3.90;;;;;;;;;;5075340;28;20453;-67
2023/09/16 05:25:45;;;;;;;6.23;4.53;;;;;;;;;;5073601;28;20496;-67
2023/09/16 05:28:13;;;;;;;6.50;4.40;;;;;;;;;;5074720;28;20445;-67
2023/09/16 05:30:42;;;;;;;8.07;4.57;;;;;;;;;;5061126;28;20437;-67
2023/09/16 05:33:10;;;;;;;10.63;5.73;;;;;;;;;;5073368;28;20433;-68
2023/09/16 05:35:37;;;;;;;8.90;5.00;;;;;;;;;;5074255;28;20499;-67
2023/09/16 05:38:04;;;;;;;7.87;5.13;;;;;;;;;;5074056;28;20434;-67
2023/09/16 05:40:31;;;;;;;8.13;5.20;;;;;;;;;;5074600;28;20480;-67
2023/09/16 05:42:59;;;;;;;9.87;4.50;;;;;;;;;;5073616;28;20791;-68
2023/09/16 05:45:27;;;;;;;7.10;4.33;;;;;;;;;;5074229;28;20834;-68
2023/09/16 05:47:55;;;;;;;7.93;5.07;;;;;;;;;;5073464;28;20445;-66
2023/09/16 05:50:22;;;;;;;6.03;4.70;;;;;;;;;;5073833;28;20622;-67
2023/09/16 05:52:49;;;;;;;9.10;5.37;;;;;;;;;;5073619;28;20452;-67
2023/09/16 05:55:16;;;;;;;9.13;4.77;;;;;;;;;;5074085;28;20481;-67
2023/09/16 05:57:43;;;;;;;7.50;4.70;;;;;;;;;;5073722;28;20607;-67
2023/09/16 06:00:10;;;;;;;9.20;5.50;;;;;;;;;;5073271;28;20927;-67
2023/09/16 06:02:40;;;;;;;9.77;4.83;;;;;;;;;;5073958;28;20449;-65
2023/09/16 06:05:08;;;;;;;10.77;5.00;;;;;;;;;;5071503;28;20967;-65
2023/09/16 06:07:35;;;;;;;10.70;6.80;;;;;;;;;;5072587;28;20824;-65
2023/09/16 06:10:02;;;;;;;10.10;6.33;;;;;;;;;;5072297;28;20800;-66
2023/09/16 06:12:29;;;;;;;11.20;6.27;;;;;;;;;;5073366;28;20442;-65
2023/09/16 06:14:56;;;;;;;10.47;6.20;;;;;;;;;;5073230;28;20469;-65
2023/09/16 06:17:23;;;;;;;10.17;6.17;;;;;;;;;;5073210;28;20452;-65
2023/09/16 06:19:54;;;;;;;9.43;5.57;;;;;;;;;;5072869;28;20840;-65
2023/09/16 06:22:21;;;;;;;10.87;6.33;;;;;;;;;;5072525;28;20576;-65
2023/09/16 06:24:48;;;;;;;10.20;6.40;;;;;;;;;;5072728;28;20465;-63
2023/09/16 06:27:15;;;;;;;10.70;5.90;;;;;;;;;;5073245;28;20441;-64
2023/09/16 06:29:43;;;;;;;11.10;6.23;;;;;;;;;;5073068;28;20835;-64
2023/09/16 06:32:10;;;;;;;9.67;6.13;;;;;;;;;;5072981;28;20971;-64
2023/09/16 06:34:37;;;;;;;6.90;5.87;;;;;;;;;;5072544;28;20492;-65
2023/09/16 06:37:06;;;;;;;10.23;5.40;;;;;;;;;;5073051;28;20544;-64
2023/09/16 06:39:33;;;;;;;10.03;6.60;;;;;;;;;;5072961;28;20437;-63
2023/09/16 06:42:00;;;;;;;7.73;5.10;;;;;;;;;;5072171;28;20500;-64
2023/09/16 06:44:27;;;;;;;8.93;6.27;;;;;;;;;;5072096;28;20461;-66
2023/09/16 06:46:54;;;;;;;7.50;5.13;;;;;;;;;;5073097;28;20445;-64
2023/09/16 06:49:21;;;;;;;12.10;6.17;;;;;;;;;;5072788;28;20943;-64
2023/09/16 06:51:48;;;;;;;10.80;6.50;;;;;;;;;;5073050;28;20442;-64
2023/09/16 06:54:17;;;;;;;8.93;6.13;;;;;;;;;;5073686;28;20468;-64
2023/09/16 06:56:44;;;;;;;7.53;5.50;;;;;;;;;;5077104;28;20437;-63
2023/09/16 06:59:11;;;;;;;10.27;6.40;;;;;;;;;;5072121;28;20452;-65
2023/09/16 07:01:38;;;;;;;9.70;6.63;;;;;;;;;;5071601;28;20997;-64
2023/09/16 07:04:06;;;;;;;9.73;6.27;;;;;;;;;;5072672;28;20465;-63
2023/09/16 07:06:33;;;;;;;8.33;5.60;;;;;;;;;;5072699;28;20441;-65
2023/09/16 07:09:00;;;;;;;8.07;5.80;;;;;;;;;;5072308;28;20818;-64
2023/09/16 07:11:28;;;;;;;8.90;6.00;;;;;;;;;;5072189;28;20460;-64
2023/09/16 07:13:55;;;;;;;8.17;5.40;;;;;;;;;;5071506;28;20953;-65
2023/09/16 07:16:22;;;;;;;10.73;5.73;;;;;;;;;;5071339;28;20441;-64
2023/09/16 07:18:50;;;;;;;8.13;6.00;;;;;;;;;;5071218;28;20976;-64
2023/09/16 07:21:17;;;;;;;9.60;6.03;;;;;;;;;;5072214;28;20826;-64
2023/09/16 07:23:44;;;;;;;7.70;6.03;;;;;;;;;;5071983;28;20448;-63
2023/09/16 07:26:11;;;;;;;9.30;5.63;;;;;;;;;;5072080;28;20529;-65
2023/09/16 07:28:39;;;;;;;11.00;6.60;;;;;;;;;;5071561;28;20449;-65
2023/09/16 07:31:06;;;;;;;6.80;5.30;;;;;;;;;;5071473;28;20437;-65
2023/09/16 07:33:33;;;;;;;10.80;6.50;;;;;;;;;;5071065;28;20446;-65
2023/09/16 07:36:00;;;;;;;8.87;5.23;;;;;;;;;;5071362;28;20464;-65
2023/09/16 07:38:27;;;;;;;9.47;6.20;;;;;;;;;;5071899;28;20792;-65
2023/09/16 07:40:54;;;;;;;9.37;5.60;;;;;;;;;;5071051;28;20434;-65
2023/09/16 07:43:21;;;;;;;6.63;5.00;;;;;;;;;;5071281;28;20446;-65
2023/09/16 07:45:49;;;;;;;8.40;5.17;;;;;;;;;;5071655;28;20465;-65
2023/09/16 07:48:17;;;;;;;7.47;5.70;;;;;;;;;;5071026;28;20463;-64
2023/09/16 07:50:44;;;;;;;8.60;5.20;;;;;;;;;;5071032;28;20433;-64
2023/09/16 07:53:11;;;;;;;7.00;4.97;;;;;;;;;;5070819;28;20452;-65
2023/09/16 07:55:40;;;;;;;7.27;4.70;;;;;;;;;;5071548;28;20465;-65
2023/09/16 07:58:07;;;;;;;9.53;5.90;;;;;;;;;;5071520;28;20441;-65
2023/09/16 08:00:34;;;;;;;8.37;5.90;;;;;;;;;;5071586;28;20441;-65
2023/09/16 08:03:02;;;;;;;7.70;5.50;;;;;;;;;;5071261;28;20491;-65
2023/09/16 08:05:30;;;;;;;9.97;5.47;;;;;;;;;;5071510;28;20812;-65
2023/09/16 08:07:57;;;;;;;7.70;4.10;;;;;;;;;;5070232;28;20449;-65
2023/09/16 08:10:24;;;;;;;6.10;5.13;;;;;;;;;;5070466;28;20455;-65
2023/09/16 08:12:51;;;;;;;8.60;5.87;;;;;;;;;;5070891;28;20446;-64
2023/09/16 08:15:18;;;;;;;8.37;5.13;;;;;;;;;;5071265;28;20880;-65
2023/09/16 08:17:45;;;;;;;5.50;4.00;;;;;;;;;;5071097;28;20437;-65
2023/09/16 08:20:18;;;;;;;9.33;5.37;;;;;;;;;;5071427;28;20981;-66
2023/09/16 08:22:46;;;;;;;5.57;4.50;;;;;;;;;;5070195;28;20593;-64
2023/09/16 08:25:13;;;;;;;8.17;4.73;;;;;;;;;;5070418;28;20488;-64
2023/09/16 08:27:40;;;;;;;9.67;6.00;;;;;;;;;;5069839;28;20445;-66
2023/09/16 08:30:07;;;;;;;7.60;4.87;;;;;;;;;;5071129;28;20448;-65
2023/09/16 08:32:38;;;;;;;8.80;6.10;;;;;;;;;;5071505;28;20868;-66
2023/09/16 08:35:06;;;;;;;9.20;5.73;;;;;;;;;;5071153;28;20568;-65
2023/09/16 08:37:35;;;;;;;8.50;5.80;;;;;;;;;;5071204;28;21103;-65
2023/09/16 08:40:02;;;;;;;7.10;4.70;;;;;;;;;;5071234;28;20822;-65
2023/09/16 08:42:33;;;;;;;8.93;5.03;;;;;;;;;;5069293;28;20473;-64
2023/09/16 08:45:00;;;;;;;6.30;4.07;;;;;;;;;;5068437;28;21065;-65
2023/09/16 08:47:29;;;;;;;7.40;4.70;;;;;;;;;;5070828;28;20452;-64
2023/09/16 08:50:01;;;;;;;5.67;3.80;;;;;;;;;;5071176;28;20931;-65
2023/09/16 08:52:32;;;;;;;6.63;4.20;;;;;;;;;;5070789;28;20444;-65
2023/09/16 08:55:01;;;;;;;7.47;4.70;;;;;;;;;;5070955;28;20466;-65
2023/09/16 08:57:28;;;;;;;5.67;4.00;;;;;;;;;;5071105;28;20441;-64
2023/09/16 08:59:56;;;;;;;6.63;4.80;;;;;;;;;;5071404;28;20441;-65
2023/09/16 09:02:23;;;;;;;7.07;4.60;;;;;;;;;;5071325;28;20480;-65
2023/09/16 09:04:50;;;;;;;6.53;5.10;;;;;;;;;;5070645;28;20463;-65
2023/09/16 09:07:18;;;;;;;5.87;3.90;;;;;;;;;;5070799;28;20526;-65
2023/09/16 09:09:45;;;;;;;5.40;4.00;;;;;;;;;;5070923;28;20446;-64
2023/09/16 09:12:13;;;;;;;5.80;3.60;;;;;;;;;;5070703;28;20437;-64
2023/09/16 09:14:41;;;;;;;7.53;5.07;;;;;;;;;;5071086;28;20468;-66
2023/09/16 09:17:09;;;;;;;5.87;4.43;;;;;;;;;;5070045;28;20436;-65
2023/09/16 09:19:37;;;;;;;5.70;3.80;;;;;;;;;;5070381;28;20974;-64
2023/09/16 09:22:05;;;;;;;5.20;3.80;;;;;;;;;;5124696;22;20618;-64
2023/09/16 09:24:32;;;;;;;5.67;4.20;;;;;;;;;;5071557;28;20472;-64
2023/09/16 09:26:59;;;;;;;5.50;4.17;;;;;;;;;;5071560;28;20442;-64
2023/09/16 09:29:28;;;;;;;6.60;4.27;;;;;;;;;;5071713;28;20449;-64
2023/09/16 09:31:55;;;;;;;6.90;4.30;;;;;;;;;;5071660;28;20470;-65
2023/09/16 09:34:22;;;;;;;6.93;3.83;;;;;;;;;;5070534;28;20911;-64
2023/09/16 09:36:49;;;;;;;5.17;4.00;;;;;;;;;;5070392;28;20433;-64
2023/09/16 09:39:16;;;;;;;7.73;4.43;;;;;;;;;;5071943;28;20433;-64
2023/09/16 09:41:45;;;;;;;6.13;5.13;;;;;;;;;;5075373;28;20477;-64
2023/09/16 09:44:12;;;;;;;9.57;7.10;;;;;;;;;;5075180;28;20476;-64
2023/09/16 09:46:41;;;;;;;5.30;3.80;;;;;;;;;;5075511;28;20437;-64
2023/09/16 09:49:10;;;;;;;39.27;18.53;;;;;;;;;;5074981;28;20817;-64
2023/09/16 09:51:38;;;;;;;13.20;7.93;;;;;;;;;;5074276;28;20471;-64
2023/09/16 09:54:06;;;;;;;5.53;4.80;;;;;;;;;;5074530;28;20471;-64
2023/09/16 09:56:33;;;;;;;4.77;3.67;;;;;;;;;;5074629;28;20453;-64
2023/09/16 09:59:01;;;;;;;4.80;3.50;;;;;;;;;;5074246;28;20444;-64
2023/09/16 10:01:31;;;;;;;5.83;4.50;;;;;;;;;;5074641;28;20870;-64
2023/09/16 10:04:02;;;;;;;5.20;3.77;;;;;;;;;;5074428;28;20965;-65
2023/09/16 10:06:29;;;;;;;6.50;3.77;;;;;;;;;;5074713;28;20453;-64
2023/09/16 10:08:57;;;;;;;5.40;4.50;;;;;;;;;;5074682;28;20484;-63
2023/09/16 10:11:24;;;;;;;5.80;3.57;;;;;;;;;;5073737;28;20441;-64
2023/09/16 10:13:51;;;;;;;3.90;3.20;;;;;;;;;;5073278;28;20541;-63
2023/09/16 10:16:18;;;;;;;4.20;3.17;;;;;;;;;;5073505;28;20503;-64
2023/09/16 10:18:45;;;;;;;5.33;3.23;;;;;;;;;;5074091;28;20880;-63
2023/09/16 10:21:15;;;;;;;5.17;3.40;;;;;;;;;;5074259;28;20445;-65
2023/09/16 10:23:42;;;;;;;5.63;3.80;;;;;;;;;;5073981;28;20490;-64
2023/09/16 10:26:10;;;;;;;5.00;3.80;;;;;;;;;;5073889;28;20445;-64
2023/09/16 10:28:42;;;;;;;4.27;2.93;;;;;;;;;;5073685;28;20479;-64
2023/09/16 10:31:10;;;;;;;4.37;3.10;;;;;;;;;;5073972;28;20456;-64
2023/09/16 10:33:37;;;;;;;4.43;3.40;;;;;;;;;;5073800;28;20533;-65
2023/09/16 10:36:04;;;;;;;5.43;3.60;;;;;;;;;;5073389;28;20464;-64
2023/09/16 10:38:35;;;;;;;4.30;2.70;;;;;;;;;;5072866;28;20544;-64
2023/09/16 10:41:03;;;;;;;3.87;2.73;;;;;;;;;;5073612;28;20927;-64
2023/09/16 10:43:30;;;;;;;3.87;2.60;;;;;;;;;;5073577;28;20484;-64
2023/09/16 10:45:57;;;;;;;3.30;3.00;;;;;;;;;;5073728;28;20472;-65
2023/09/16 10:48:24;;;;;;;4.40;3.40;;;;;;;;;;5073093;28;20452;-65
2023/09/16 10:50:53;;;;;;;4.33;3.60;;;;;;;;;;5072956;28;20452;-65
2023/09/16 10:53:23;;;;;;;5.00;3.50;;;;;;;;;;5072324;28;20433;-63
2023/09/16 10:55:53;;;;;;;5.57;3.87;;;;;;;;;;5073053;28;20449;-64
2023/09/16 10:58:23;;;;;;;4.20;3.17;;;;;;;;;;5073386;28;20441;-63
2023/09/16 11:00:54;;;;;;;4.30;3.30;;;;;;;;;;5073122;28;20536;-65
2023/09/16 11:03:22;;;;;;;4.27;3.07;;;;;;;;;;5073251;28;20576;-64
2023/09/16 11:05:49;;;;;;;3.17;2.33;;;;;;;;;;5073295;28;20461;-63
2023/09/16 11:08:17;;;;;;;2.80;2.43;;;;;;;;;;5072133;28;20453;-64
2023/09/16 11:10:44;;;;;;;4.10;2.40;;;;;;;;;;5072362;28;20460;-63
2023/09/16 11:13:12;;;;;;;5.90;2.40;;;;;;;;;;5072287;28;20443;-63
2023/09/16 11:15:42;;;;;;;2.80;2.37;;;;;;;;;;5072688;28;20464;-63
2023/09/16 11:18:10;;;;;;;2.90;2.10;;;;;;;;;;5072579;28;20868;-64
2023/09/16 11:20:38;;;;;;;3.20;2.20;;;;;;;;;;5072706;28;20448;-63
2023/09/16 11:23:06;;;;;;;3.43;2.40;;;;;;;;;;5072599;28;20512;-63
2023/09/16 11:25:34;;;;;;;2.70;1.97;;;;;;;;;;5072269;28;20469;-63
2023/09/16 11:28:03;;;;;;;3.13;2.13;;;;;;;;;;5072328;28;20520;-64
2023/09/16 11:30:33;;;;;;;3.87;2.80;;;;;;;;;;5072110;28;20448;-64
2023/09/16 11:33:26;;;;;;;5.10;2.80;;;;;;;;;;5070494;28;20491;-64
2023/09/16 11:36:07;;;;;;;2.80;1.83;;;;;;;;;;5059977;28;20453;-64
2023/09/16 11:38:34;;;;;;;2.80;2.10;;;;;;;;;;5072468;28;20475;-64
2023/09/16 11:41:09;;;;;;;5.40;3.03;;;;;;;;;;5071307;28;20440;-64
2023/09/16 11:43:36;;;;;;;3.90;2.67;;;;;;;;;;5072296;28;20480;-64
2023/09/16 11:46:06;;;;;;;3.43;2.27;;;;;;;;;;5071510;28;20973;-64
2023/09/16 11:48:38;;;;;;;5.33;3.70;;;;;;;;;;5072110;28;20578;-64
2023/09/16 11:51:07;;;;;;;3.60;2.30;;;;;;;;;;5071911;28;20444;-63
2023/09/16 11:53:34;;;;;;;3.60;2.27;;;;;;;;;;5072333;28;20440;-63
2023/09/16 11:56:01;;;;;;;3.23;2.27;;;;;;;;;;5072213;28;20461;-64
2023/09/16 11:58:29;;;;;;;2.93;2.23;;;;;;;;;;5072153;28;20451;-64
2023/09/16 12:00:56;;;;;;;3.30;2.20;;;;;;;;;;5071041;28;20444;-64
2023/09/16 12:03:25;;;;;;;9.37;4.73;;;;;;;;;;5071360;28;20555;-64
2023/09/16 12:05:52;;;;;;;3.10;1.90;;;;;;;;;;5072063;28;20575;-64
2023/09/16 12:08:19;;;;;;;2.23;1.63;;;;;;;;;;5071320;28;20515;-63
2023/09/16 12:10:46;;;;;;;2.37;1.60;;;;;;;;;;5072091;28;20483;-64
2023/09/16 12:13:13;;;;;;;2.53;1.70;;;;;;;;;;5071386;28;20523;-63
2023/09/16 12:15:40;;;;;;;4.43;2.77;;;;;;;;;;5071886;28;20464;-64
2023/09/16 12:18:08;;;;;;;2.77;1.70;;;;;;;;;;5071082;28;20447;-64
2023/09/16 12:20:37;;;;;;;2.93;2.03;;;;;;;;;;5069966;28;20492;-64
2023/09/16 12:23:07;;;;;;;3.03;1.70;;;;;;;;;;5070094;28;20476;-64
2023/09/16 12:25:40;;;;;;;3.10;1.90;;;;;;;;;;5071019;28;20457;-64
2023/09/16 12:28:07;;;;;;;2.80;1.90;;;;;;;;;;5071451;28;20202;-65
2023/09/16 12:30:42;;;;;;;2.30;1.97;;;;;;;;;;5071753;28;20447;-64
2023/09/16 12:33:09;;;;;;;3.17;2.30;;;;;;;;;;5071228;28;20241;-65
2023/09/16 12:35:39;;;;;;;3.20;1.57;;;;;;;;;;5070495;28;20227;-66
2023/09/16 12:38:06;;;;;;;2.33;2.00;;;;;;;;;;5071284;28;20199;-65
2023/09/16 12:40:34;;;;;;;1.70;1.23;;;;;;;;;;5071140;28;20526;-66
2023/09/16 12:43:02;;;;;;;2.50;1.83;;;;;;;;;;5071234;28;20852;-65
2023/09/16 12:45:30;;;;;;;2.33;1.63;;;;;;;;;;5070693;28;20229;-63
2023/09/16 12:47:57;;;;;;;2.57;1.70;;;;;;;;;;5071461;28;20224;-63
2023/09/16 12:50:24;;;;;;;3.17;2.03;;;;;;;;;;5070976;28;20203;-65
2023/09/16 12:52:53;;;;;;;3.87;2.03;;;;;;;;;;5070703;28;20568;-64
2023/09/16 12:55:24;;;;;;;2.80;1.77;;;;;;;;;;5070852;28;20222;-65
2023/09/16 12:57:52;;;;;;;2.47;2.07;;;;;;;;;;5071229;28;20202;-65
2023/09/16 13:00:21;;;;;;;2.47;1.80;;;;;;;;;;5071443;28;20229;-64
2023/09/16 13:02:48;;;;;;;2.58;1.92;;;;;;;;;;5071155;28;20225;-65
2023/09/16 13:05:16;;;;;;;2.05;1.60;;;;;;;;;;5070258;28;20250;-65
2023/09/16 13:07:44;;;;;;;3.30;1.87;;;;;;;;;;5070864;28;20235;-65
2023/09/16 13:10:13;;;;;;;2.83;1.98;;;;;;;;;;5071301;28;20206;-65
2023/09/16 13:12:42;;;;;;;3.25;1.95;;;;;;;;;;5070552;28;20202;-65
2023/09/16 13:15:13;;;;;;;4.75;2.30;;;;;;;;;;5074199;28;20226;-64
2023/09/16 13:17:41;;;;;;;2.30;1.67;;;;;;;;;;5075007;28;20195;-65
2023/09/16 13:20:13;;;;;;;5.30;1.90;;;;;;;;;;5074301;28;20198;-65
2023/09/16 13:22:40;;;;;;;2.27;1.63;;;;;;;;;;5075124;28;20206;-64
2023/09/16 13:25:22;;;;;;;3.40;1.97;;;;;;;;;;5074632;28;20789;-64
2023/09/16 13:27:51;;;;;;;3.03;1.80;;;;;;;;;;5068822;28;20202;-64
2023/09/16 13:30:21;;;;;;;3.63;2.13;;;;;;;;;;5071601;28;20587;-64
2023/09/16 13:32:52;;;;;;;4.33;1.80;;;;;;;;;;5073725;28;20199;-63
2023/09/16 13:35:19;;;;;;;10.13;6.28;;;;;;;;;;5074645;28;20716;-64
2023/09/16 13:37:46;;;;;;;2.70;2.17;;;;;;;;;;5074588;28;20206;-64
2023/09/16 13:40:15;;;;;;;3.78;2.70;;;;;;;;;;5073171;28;20202;-64
2023/09/16 13:42:42;;;;;;;3.35;2.13;;;;;;;;;;5074289;28;20203;-64
2023/09/16 13:45:11;;;;;;;2.90;2.08;;;;;;;;;;5074786;28;20226;-64
2023/09/16 13:47:38;;;;;;;4.43;2.58;;;;;;;;;;5074000;28;20198;-64
2023/09/16 13:50:05;;;;;;;2.35;1.52;;;;;;;;;;5074199;28;20214;-63
2023/09/16 13:52:32;;;;;;;5.25;2.00;;;;;;;;;;5073915;28;20198;-63
2023/09/16 13:55:00;;;;;;;4.93;1.63;;;;;;;;;;5073610;28;20229;-63
2023/09/16 13:57:28;;;;;;;3.30;2.38;;;;;;;;;;5074322;28;20206;-64
2023/09/16 13:59:55;;;;;;;2.95;1.95;;;;;;;;;;5073369;28;20245;-65
2023/09/16 14:02:24;;;;;;;2.53;2.13;;;;;;;;;;5074207;28;20199;-64
2023/09/16 14:04:51;;;;;;;2.78;1.95;;;;;;;;;;5073877;28;20227;-64
2023/09/16 14:07:18;;;;;;;2.03;1.40;;;;;;;;;;5074073;28;20218;-64
2023/09/16 14:09:46;;;;;;;3.78;1.90;;;;;;;;;;5073210;28;20203;-64
2023/09/16 14:12:13;;;;;;;2.40;1.92;;;;;;;;;;5072704;28;20271;-65
2023/09/16 14:14:40;;;;;;;2.83;1.83;;;;;;;;;;5073408;28;20223;-64
2023/09/16 14:17:08;;;;;;;2.00;1.40;;;;;;;;;;5073935;28;20293;-66
2023/09/16 14:19:37;;;;;;;2.17;1.40;;;;;;;;;;5073542;28;20198;-64
2023/09/16 14:22:04;;;;;;;2.13;1.77;;;;;;;;;;5073801;28;20686;-65
2023/09/16 14:24:32;;;;;;;3.13;2.25;;;;;;;;;;5073051;28;20226;-64
2023/09/16 14:26:59;;;;;;;2.97;2.10;;;;;;;;;;5072877;28;20203;-64
2023/09/16 14:29:26;;;;;;;2.22;1.50;;;;;;;;;;5073862;28;20198;-64
2023/09/16 14:31:53;;;;;;;1.92;1.52;;;;;;;;;;5073343;28;20195;-64
2023/09/16 14:34:20;;;;;;;2.85;1.50;;;;;;;;;;5072801;28;20237;-64
2023/09/16 14:36:49;;;;;;;2.30;1.90;;;;;;;;;;5074218;28;20203;-65
2023/09/16 14:39:17;;;;;;;2.55;1.83;;;;;;;;;;5073435;28;20211;-64